Time;durP1;ratioP1;P1;durP2;ratioP2;P2;SDS_P1;SDS_P2;PMS_P1;PMS_P2;Temp;Humidity;BMP_temperature;BMP_pressure;BME280_temperature;BME280_humidity;BME280_pressure;Samples;Min_cycle;Max_cycle;Signal;HPM_P1;HPM_P2
2022/11/20 00:02:20;;;;;;;0.30;0.30;;;1.20;99.90;;;;;;4943191;28;21657;-89
2022/11/20 00:04:45;;;;;;;0.50;0.50;;;1.20;99.90;;;;;;4945472;28;20191;-88
2022/11/20 00:07:11;;;;;;;0.40;0.40;;;1.10;99.90;;;;;;4946453;28;20197;-88
2022/11/20 00:09:36;;;;;;;0.40;0.40;;;1.10;99.90;;;;;;4999380;28;20260;-87
2022/11/20 00:12:03;;;;;;;0.40;0.40;;;1.20;99.90;;;;;;4944832;28;20641;-87
2022/11/20 00:14:28;;;;;;;0.50;0.50;;;1.10;99.90;;;;;;4945720;28;20214;-88
2022/11/20 00:16:54;;;;;;;0.50;0.50;;;1.10;99.90;;;;;;4939858;28;21013;-87
2022/11/20 00:19:19;;;;;;;0.50;0.50;;;1.10;99.90;;;;;;4956026;28;20662;-88
2022/11/20 00:21:45;;;;;;;0.40;0.40;;;1.10;99.90;;;;;;4949420;28;20224;-87
2022/11/20 00:24:10;;;;;;;0.40;0.40;;;1.10;99.90;;;;;;4946511;28;20197;-87
2022/11/20 00:26:36;;;;;;;0.50;0.50;;;1.10;99.90;;;;;;4940749;28;20274;-88
2022/11/20 00:29:02;;;;;;;0.37;0.37;;;1.00;99.90;;;;;;4996076;28;20574;-87
2022/11/20 00:31:29;;;;;;;0.40;0.40;;;1.00;99.90;;;;;;4992864;28;20896;-88
2022/11/20 00:33:55;;;;;;;0.40;0.40;;;1.00;99.90;;;;;;4940770;28;20458;-89
2022/11/20 00:36:23;;;;;;;0.50;0.50;;;1.00;99.90;;;;;;4937318;28;20474;-89
2022/11/20 00:38:53;;;;;;;0.50;0.50;;;1.00;99.90;;;;;;4938692;28;20451;-90
2022/11/20 00:41:19;;;;;;;0.40;0.40;;;1.00;99.90;;;;;;4941099;28;20534;-90
2022/11/20 00:43:44;;;;;;;0.60;0.60;;;1.00;99.90;;;;;;4944272;28;20529;-89
2022/11/20 00:46:16;;;;;;;0.40;0.40;;;1.00;99.90;;;;;;4938604;28;21026;-89
2022/11/20 00:48:43;;;;;;;0.50;0.50;;;1.00;99.90;;;;;;4968120;28;20199;-90
2022/11/20 00:51:11;;;;;;;0.40;0.40;;;1.00;99.90;;;;;;4947699;28;20478;-90
2022/11/20 00:53:36;;;;;;;0.47;0.47;;;1.00;99.90;;;;;;4947141;28;20446;-90
2022/11/20 00:56:07;;;;;;;0.40;0.40;;;1.00;99.90;;;;;;4944000;28;21755;-90
2022/11/20 00:58:37;;;;;;;0.40;0.40;;;1.00;99.90;;;;;;4944146;28;20202;-91
2022/11/20 01:01:06;;;;;;;0.53;0.53;;;1.00;99.90;;;;;;4945433;28;20591;-90
2022/11/20 01:03:33;;;;;;;0.40;0.40;;;0.90;99.90;;;;;;4943774;28;20949;-90
2022/11/20 01:06:30;;;;;;;0.60;0.60;;;0.90;99.90;;;;;;5034784;28;20460;-90
2022/11/20 01:08:58;;;;;;;0.50;0.50;;;0.90;99.90;;;;;;4965528;28;20454;-90
2022/11/20 01:11:30;;;;;;;0.50;0.50;;;0.90;99.90;;;;;;4997775;28;20508;-90
2022/11/20 01:13:58;;;;;;;0.40;0.40;;;0.90;99.90;;;;;;4945691;28;20812;-90
2022/11/20 01:16:27;;;;;;;0.50;0.50;;;0.90;99.90;;;;;;4998753;28;20458;-90
2022/11/20 01:18:56;;;;;;;0.50;0.50;;;0.90;99.90;;;;;;4967357;28;20500;-91
2022/11/20 01:21:25;;;;;;;0.47;0.47;;;0.90;99.90;;;;;;4943291;28;20533;-90
2022/11/20 01:23:51;;;;;;;0.40;0.40;;;1.00;99.90;;;;;;4944229;28;20446;-89
2022/11/20 01:26:20;;;;;;;0.50;0.50;;;1.00;99.90;;;;;;4940785;28;20537;-90
2022/11/20 01:28:45;;;;;;;0.50;0.50;;;1.00;99.90;;;;;;4939583;28;20442;-91
2022/11/20 01:31:19;;;;;;;0.50;0.50;;;1.00;99.90;;;;;;4938933;28;20508;-90
2022/11/20 01:33:46;;;;;;;0.40;0.40;;;1.00;99.90;;;;;;4940627;28;20183;-90
2022/11/20 01:36:12;;;;;;;0.50;0.50;;;1.00;99.90;;;;;;4948655;28;20465;-90
2022/11/20 01:38:38;;;;;;;0.50;0.50;;;1.00;99.90;;;;;;4951635;29;20434;-90
2022/11/20 01:41:04;;;;;;;0.40;0.40;;;1.00;99.90;;;;;;4950772;28;20458;-90
2022/11/20 01:43:30;;;;;;;0.50;0.50;;;1.00;99.90;;;;;;4946949;28;20195;-89
2022/11/20 01:46:05;;;;;;;0.60;0.60;;;1.00;99.90;;;;;;4950339;28;20562;-89
2022/11/20 01:48:54;;;;;;;0.60;0.60;;;1.00;99.90;;;;;;4950376;29;20277;-88
2022/11/20 01:51:38;;;;;;;0.40;0.40;;;1.00;99.90;;;;;;4998631;28;20853;-88
2022/11/20 01:54:09;;;;;;;0.40;0.40;;;1.00;99.90;;;;;;4939727;28;20947;-88
2022/11/20 01:56:39;;;;;;;0.50;0.50;;;1.00;99.90;;;;;;5033756;28;20494;-87
2022/11/20 01:59:07;;;;;;;0.50;0.50;;;1.00;99.90;;;;;;4969110;28;20434;-87
2022/11/20 02:01:34;;;;;;;0.50;0.50;;;1.00;99.90;;;;;;4971991;28;21057;-88
2022/11/20 02:04:00;;;;;;;0.50;0.50;;;1.00;99.90;;;;;;4949730;28;20422;-88
2022/11/20 02:06:40;;;;;;;0.50;0.50;;;1.00;99.90;;;;;;4944795;28;20520;-89
2022/11/20 02:09:06;;;;;;;0.50;0.50;;;1.00;99.90;;;;;;4937082;28;20818;-88
2022/11/20 02:11:32;;;;;;;0.40;0.40;;;1.00;99.90;;;;;;4946425;28;20464;-88
2022/11/20 02:13:58;;;;;;;0.40;0.40;;;1.00;99.90;;;;;;4984473;28;20183;-89
2022/11/20 02:16:28;;;;;;;0.30;0.30;;;1.00;99.90;;;;;;4942550;28;20524;-90
2022/11/20 02:18:55;;;;;;;0.40;0.40;;;1.00;99.90;;;;;;4948892;28;20935;-91
2022/11/20 02:21:34;;;;;;;0.40;0.40;;;1.00;99.90;;;;;;4987871;28;20963;-90
2022/11/20 02:24:08;;;;;;;0.50;0.50;;;1.00;99.90;;;;;;4944023;28;20448;-91
2022/11/20 02:26:56;;;;;;;0.33;0.33;;;1.00;99.90;;;;;;4943352;28;20470;-90
2022/11/20 02:29:30;;;;;;;0.47;0.47;;;1.00;99.90;;;;;;4978082;28;20833;-90
2022/11/20 02:31:58;;;;;;;0.50;0.50;;;1.00;99.90;;;;;;4987306;28;20452;-90
2022/11/20 02:34:25;;;;;;;0.60;0.60;;;1.10;99.90;;;;;;4948097;28;20496;-91
2022/11/20 02:36:51;;;;;;;0.40;0.40;;;1.10;99.90;;;;;;4940628;28;20653;-92
2022/11/20 02:39:18;;;;;;;0.40;0.40;;;1.00;99.90;;;;;;4945952;28;20449;-91
2022/11/20 02:41:44;;;;;;;0.50;0.50;;;1.00;99.90;;;;;;4943836;28;21370;-91
2022/11/20 02:44:09;;;;;;;0.50;0.50;;;1.10;99.90;;;;;;4940132;28;20451;-91
2022/11/20 02:46:35;;;;;;;0.50;0.50;;;1.10;99.90;;;;;;4991023;28;20229;-91
2022/11/20 02:49:02;;;;;;;0.40;0.40;;;1.00;99.90;;;;;;4944604;28;20489;-92
2022/11/20 02:51:28;;;;;;;0.40;0.40;;;1.10;99.90;;;;;;4937129;28;20226;-91
2022/11/20 02:53:54;;;;;;;0.40;0.40;;;1.10;99.90;;;;;;4940239;28;20523;-91
2022/11/20 02:56:19;;;;;;;0.40;0.40;;;1.10;99.90;;;;;;4939955;28;20203;-91
2022/11/20 02:58:45;;;;;;;0.43;0.43;;;1.10;99.90;;;;;;4948844;28;20191;-91
2022/11/20 03:01:10;;;;;;;0.40;0.40;;;1.00;99.90;;;;;;5002649;28;20191;-91
2022/11/20 03:03:36;;;;;;;0.50;0.50;;;1.10;99.90;;;;;;4941500;28;20198;-91
2022/11/20 03:06:01;;;;;;;0.47;0.47;;;1.10;99.90;;;;;;4942354;28;20191;-92
2022/11/20 03:08:28;;;;;;;0.50;0.50;;;1.10;99.90;;;;;;4992805;28;20199;-93
2022/11/20 03:10:53;;;;;;;0.40;0.40;;;1.10;99.90;;;;;;5003822;28;20253;-95
2022/11/20 03:13:19;;;;;;;0.50;0.50;;;1.10;99.90;;;;;;4948144;28;20458;-94
2022/11/20 03:15:44;;;;;;;0.50;0.50;;;1.10;99.90;;;;;;4949070;28;20213;-94
2022/11/20 03:18:10;;;;;;;0.50;0.50;;;1.10;99.90;;;;;;5010519;28;20194;-94
2022/11/20 03:20:35;;;;;;;0.50;0.50;;;1.10;99.90;;;;;;4946904;28;20666;-96
2022/11/20 03:23:01;;;;;;;0.40;0.40;;;1.10;99.90;;;;;;4967323;28;20272;-96
2022/11/20 03:25:27;;;;;;;0.50;0.50;;;1.10;99.90;;;;;;4949254;28;20193;-94
2022/11/20 03:27:53;;;;;;;0.40;0.40;;;1.10;99.90;;;;;;4949008;28;20536;-94
2022/11/20 03:30:19;;;;;;;0.50;0.50;;;1.10;99.90;;;;;;4944474;28;20230;-95
2022/11/20 03:32:45;;;;;;;0.40;0.40;;;1.10;99.90;;;;;;4944362;28;20535;-94
2022/11/20 03:35:11;;;;;;;0.50;0.50;;;1.10;99.90;;;;;;4939469;28;20188;-94
2022/11/20 03:37:36;;;;;;;0.50;0.50;;;1.10;99.90;;;;;;4946181;28;20492;-95
2022/11/20 03:40:02;;;;;;;0.47;0.47;;;1.10;99.90;;;;;;4942297;28;20199;-94
2022/11/20 03:42:45;;;;;;;0.40;0.40;;;1.10;99.90;;;;;;4947518;28;20227;-94
2022/11/20 03:45:16;;;;;;;0.50;0.50;;;1.20;99.90;;;;;;5004193;28;22377;-94
2022/11/20 03:47:43;;;;;;;0.40;0.40;;;1.10;99.90;;;;;;4967226;28;20474;-94
2022/11/20 03:50:12;;;;;;;0.30;0.30;;;1.10;99.90;;;;;;4960886;28;20490;-91
2022/11/20 03:52:38;;;;;;;0.50;0.50;;;1.00;99.90;;;;;;4946098;28;20437;-93
2022/11/20 03:55:04;;;;;;;0.40;0.40;;;1.00;99.90;;;;;;4949058;28;20472;-93
2022/11/20 03:57:29;;;;;;;0.40;0.40;;;1.00;99.90;;;;;;4945699;28;21030;-92
2022/11/20 03:59:55;;;;;;;0.50;0.50;;;1.10;99.90;;;;;;4974444;28;20457;-92
2022/11/20 04:02:20;;;;;;;0.40;0.40;;;1.10;99.90;;;;;;4947130;29;20190;-92
2022/11/20 04:04:46;;;;;;;0.47;0.47;;;1.10;99.90;;;;;;4946250;28;20195;-93
2022/11/20 04:07:11;;;;;;;0.50;0.50;;;1.10;99.90;;;;;;4942696;28;20269;-92
2022/11/20 04:09:38;;;;;;;0.50;0.50;;;1.00;99.90;;;;;;4943751;28;20744;-92
2022/11/20 04:12:04;;;;;;;0.50;0.50;;;1.00;99.90;;;;;;4954237;28;20222;-91
2022/11/20 04:14:29;;;;;;;0.43;0.43;;;1.00;99.90;;;;;;4945949;28;21318;-92
2022/11/20 04:16:55;;;;;;;0.40;0.40;;;1.00;99.90;;;;;;4950970;28;20206;-92
2022/11/20 04:19:20;;;;;;;0.50;0.50;;;1.00;99.90;;;;;;4938386;28;20256;-91
2022/11/20 04:21:45;;;;;;;0.50;0.50;;;0.90;99.90;;;;;;4939658;28;20280;-92
2022/11/20 04:24:11;;;;;;;0.47;0.47;;;1.00;99.90;;;;;;4944872;28;20190;-92
2022/11/20 04:26:37;;;;;;;0.50;0.50;;;1.00;99.90;;;;;;4988579;28;20198;-91
2022/11/20 04:29:03;;;;;;;0.40;0.40;;;1.00;99.90;;;;;;4949564;28;20195;-93
2022/11/20 04:31:31;;;;;;;0.40;0.40;;;1.00;99.90;;;;;;4943377;28;20227;-92
2022/11/20 04:34:02;;;;;;;0.40;0.40;;;0.90;99.90;;;;;;5010100;28;20447;-92
2022/11/20 04:36:29;;;;;;;0.50;0.50;;;0.90;99.90;;;;;;4948939;28;20461;-94
2022/11/20 04:38:57;;;;;;;0.50;0.50;;;0.90;99.90;;;;;;4949650;28;20546;-93
2022/11/20 04:41:31;;;;;;;0.40;0.40;;;0.90;99.90;;;;;;4946399;28;20454;-95
2022/11/20 04:44:02;;;;;;;0.50;0.50;;;0.80;99.90;;;;;;4948646;28;20461;-93
2022/11/20 04:46:28;;;;;;;0.40;0.40;;;0.80;99.90;;;;;;4953113;28;20539;-93
2022/11/20 04:48:54;;;;;;;0.40;0.40;;;0.60;99.90;;;;;;4952512;28;20466;-92
2022/11/20 04:51:20;;;;;;;0.60;0.60;;;0.60;99.90;;;;;;4944967;28;20543;-92
2022/11/20 04:53:45;;;;;;;0.50;0.50;;;0.70;99.90;;;;;;4950928;28;20191;-91
2022/11/20 04:56:11;;;;;;;0.50;0.50;;;0.70;99.90;;;;;;4952210;28;20191;-92
2022/11/20 04:58:38;;;;;;;0.40;0.40;;;0.70;99.90;;;;;;4953002;29;20178;-89
2022/11/20 05:01:10;;;;;;;0.40;0.40;;;0.70;99.90;;;;;;4950017;29;20477;-90
2022/11/20 05:03:35;;;;;;;0.50;0.50;;;0.70;99.90;;;;;;4988321;28;20498;-89
2022/11/20 05:06:03;;;;;;;0.50;0.50;;;0.60;99.90;;;;;;4940114;28;20462;-91
2022/11/20 05:08:29;;;;;;;0.50;0.50;;;0.60;99.90;;;;;;4952629;29;20221;-90
2022/11/20 05:11:03;;;;;;;0.47;0.47;;;0.70;99.90;;;;;;4947942;28;20486;-91
2022/11/20 05:13:29;;;;;;;0.60;0.60;;;0.70;99.90;;;;;;4945089;28;20453;-91
2022/11/20 05:15:54;;;;;;;0.50;0.50;;;0.70;99.90;;;;;;4945041;28;20450;-91
2022/11/20 05:18:20;;;;;;;0.50;0.50;;;0.70;99.90;;;;;;4947191;28;20190;-91
2022/11/20 05:20:45;;;;;;;0.50;0.50;;;0.70;99.90;;;;;;4999521;28;20217;-90
2022/11/20 05:23:11;;;;;;;0.50;0.50;;;0.70;99.90;;;;;;4941584;28;20198;-91
2022/11/20 05:25:36;;;;;;;0.40;0.40;;;0.70;99.90;;;;;;4940373;28;20197;-90
2022/11/20 05:28:02;;;;;;;0.47;0.47;;;0.70;99.90;;;;;;4947598;28;20710;-91
2022/11/20 05:30:27;;;;;;;0.50;0.50;;;0.70;99.90;;;;;;4944056;28;20231;-91
2022/11/20 05:32:53;;;;;;;0.50;0.50;;;0.70;99.90;;;;;;4945067;28;20179;-91
2022/11/20 05:35:18;;;;;;;0.50;0.50;;;0.70;99.90;;;;;;4949743;28;20209;-90
2022/11/20 05:37:44;;;;;;;0.50;0.50;;;0.70;99.90;;;;;;4954302;28;20558;-91
2022/11/20 05:40:10;;;;;;;0.50;0.50;;;0.70;99.90;;;;;;4952124;28;20244;-90
2022/11/20 05:42:35;;;;;;;0.50;0.50;;;0.70;99.90;;;;;;4950405;29;20253;-90
2022/11/20 05:45:03;;;;;;;0.50;0.50;;;0.70;99.90;;;;;;4995643;28;20450;-91
2022/11/20 05:47:32;;;;;;;0.60;0.60;;;0.70;99.90;;;;;;4950542;29;20199;-91
2022/11/20 05:49:58;;;;;;;0.43;0.43;;;0.70;99.90;;;;;;4950736;29;20527;-91
2022/11/20 05:52:23;;;;;;;0.40;0.40;;;0.70;99.90;;;;;;4949013;28;20970;-90
2022/11/20 05:54:49;;;;;;;0.50;0.50;;;0.70;99.90;;;;;;4945565;28;20194;-90
2022/11/20 05:57:14;;;;;;;0.50;0.50;;;0.70;99.90;;;;;;4950192;29;20199;-89
2022/11/20 05:59:40;;;;;;;0.53;0.53;;;0.70;99.90;;;;;;4953002;28;20527;-90
2022/11/20 06:02:05;;;;;;;0.50;0.50;;;0.70;99.90;;;;;;4949206;28;20685;-90
2022/11/20 06:04:31;;;;;;;0.50;0.50;;;0.60;99.90;;;;;;4945285;28;20599;-90
2022/11/20 06:06:56;;;;;;;0.50;0.50;;;0.60;99.90;;;;;;4958422;28;20190;-90
2022/11/20 06:09:22;;;;;;;0.40;0.40;;;0.60;99.90;;;;;;4942472;28;20710;-91
2022/11/20 06:11:47;;;;;;;0.50;0.50;;;0.50;99.90;;;;;;4947484;28;20203;-90
2022/11/20 06:14:13;;;;;;;0.50;0.50;;;0.50;99.90;;;;;;5013853;28;20183;-91
2022/11/20 06:16:38;;;;;;;0.50;0.50;;;0.60;99.90;;;;;;5010870;28;20217;-91
2022/11/20 06:19:04;;;;;;;0.50;0.50;;;0.60;99.90;;;;;;4949650;28;20251;-91
2022/11/20 06:21:29;;;;;;;0.50;0.50;;;0.60;99.90;;;;;;4953162;28;20186;-91
2022/11/20 06:23:55;;;;;;;0.50;0.50;;;0.60;99.90;;;;;;4991697;28;20217;-89
2022/11/20 06:26:23;;;;;;;0.50;0.50;;;0.60;99.90;;;;;;5004394;28;20214;-90
2022/11/20 06:28:49;;;;;;;0.50;0.50;;;0.60;99.90;;;;;;4948013;28;20195;-92
2022/11/20 06:31:17;;;;;;;0.37;0.37;;;0.60;99.90;;;;;;4942404;28;20486;-92
2022/11/20 06:33:44;;;;;;;0.47;0.47;;;0.60;99.90;;;;;;4948798;28;20541;-90
2022/11/20 06:36:11;;;;;;;0.50;0.50;;;0.60;99.90;;;;;;4949525;28;21029;-90
2022/11/20 06:38:38;;;;;;;0.53;0.53;;;0.60;99.90;;;;;;4948917;28;20490;-90
2022/11/20 06:41:04;;;;;;;0.50;0.50;;;0.60;99.90;;;;;;4950167;28;20541;-88
2022/11/20 06:43:30;;;;;;;0.43;0.43;;;0.60;99.90;;;;;;4950252;28;20969;-88
2022/11/20 06:45:58;;;;;;;0.50;0.50;;;0.50;99.90;;;;;;4959140;28;20473;-89
2022/11/20 06:48:25;;;;;;;0.47;0.47;;;0.50;99.90;;;;;;4956444;28;20202;-89
2022/11/20 06:50:51;;;;;;;0.50;0.50;;;0.50;99.90;;;;;;4950860;28;20490;-90
2022/11/20 06:53:16;;;;;;;0.50;0.50;;;0.50;99.90;;;;;;4946893;28;21013;-91
2022/11/20 06:55:43;;;;;;;0.50;0.50;;;0.40;99.90;;;;;;4953629;28;20198;-90
2022/11/20 06:58:09;;;;;;;0.50;0.50;;;0.50;99.90;;;;;;4952184;28;20183;-91
2022/11/20 07:00:35;;;;;;;0.60;0.60;;;0.40;99.90;;;;;;4947621;28;20533;-88
2022/11/20 07:03:08;;;;;;;0.40;0.40;;;0.50;99.90;;;;;;5014071;28;20449;-88
2022/11/20 07:05:34;;;;;;;0.40;0.40;;;0.50;99.90;;;;;;4950040;28;20194;-89
2022/11/20 07:07:59;;;;;;;0.50;0.50;;;0.50;99.90;;;;;;4960961;28;20450;-89
2022/11/20 07:10:26;;;;;;;0.50;0.50;;;0.50;99.90;;;;;;4943225;28;20596;-89
2022/11/20 07:12:52;;;;;;;0.50;0.50;;;0.60;99.90;;;;;;4941687;28;20567;-88
2022/11/20 07:15:19;;;;;;;0.40;0.40;;;0.60;99.90;;;;;;4945890;28;20466;-89
2022/11/20 07:17:44;;;;;;;0.50;0.50;;;0.60;99.90;;;;;;5034644;28;20450;-89
2022/11/20 07:20:10;;;;;;;0.40;0.40;;;0.60;99.90;;;;;;4950901;28;20965;-89
2022/11/20 07:22:36;;;;;;;0.40;0.40;;;0.60;99.90;;;;;;4955709;28;20207;-89
2022/11/20 07:25:01;;;;;;;0.50;0.50;;;0.60;99.90;;;;;;4950450;28;20508;-89
2022/11/20 07:27:27;;;;;;;0.50;0.50;;;0.70;99.90;;;;;;5013639;28;20190;-89
2022/11/20 07:29:53;;;;;;;0.50;0.50;;;0.70;99.90;;;;;;4954883;28;20309;-88
2022/11/20 07:32:19;;;;;;;0.50;0.50;;;0.70;99.90;;;;;;4952312;28;20555;-89
2022/11/20 07:34:44;;;;;;;0.40;0.40;;;0.70;99.90;;;;;;4947886;28;20202;-89
2022/11/20 07:37:10;;;;;;;0.47;0.47;;;0.80;99.90;;;;;;5009654;28;20650;-90
2022/11/20 07:39:35;;;;;;;0.50;0.50;;;0.80;99.90;;;;;;5018005;28;20677;-89
2022/11/20 07:42:01;;;;;;;0.40;0.40;;;0.80;99.90;;;;;;4939387;28;20236;-88
2022/11/20 07:44:26;;;;;;;0.50;0.50;;;0.80;99.90;;;;;;4942446;28;20227;-88
2022/11/20 07:46:52;;;;;;;0.40;0.40;;;0.80;99.90;;;;;;4945166;28;20199;-88
2022/11/20 07:49:17;;;;;;;0.50;0.50;;;0.80;99.90;;;;;;4959538;28;20259;-88
2022/11/20 07:51:42;;;;;;;0.40;0.40;;;0.80;99.90;;;;;;4946745;28;20214;-87
2022/11/20 07:54:08;;;;;;;0.40;0.40;;;0.80;99.90;;;;;;4946909;28;20922;-89
2022/11/20 07:56:34;;;;;;;0.40;0.40;;;0.80;99.90;;;;;;5007430;28;20245;-88
2022/11/20 07:58:59;;;;;;;0.40;0.40;;;0.80;99.90;;;;;;4946515;28;20651;-88
2022/11/20 08:01:25;;;;;;;0.50;0.50;;;0.80;99.90;;;;;;4995438;28;20407;-87
2022/11/20 08:03:50;;;;;;;0.43;0.43;;;0.80;99.90;;;;;;4955949;28;20269;-87
2022/11/20 08:06:17;;;;;;;0.50;0.50;;;0.80;99.90;;;;;;4948527;28;20790;-88
2022/11/20 08:08:42;;;;;;;0.50;0.50;;;0.80;99.90;;;;;;4954285;28;20193;-87
2022/11/20 08:16:36;;;;;;;0.50;0.50;;;1.00;99.90;;;;;;4946337;28;20808;-86
2022/11/20 08:19:02;;;;;;;0.40;0.40;;;1.10;99.90;;;;;;4962606;28;20450;-86
2022/11/20 08:21:27;;;;;;;0.40;0.40;;;1.20;99.90;;;;;;5016546;28;20201;-85
2022/11/20 08:23:53;;;;;;;0.40;0.40;;;1.40;99.90;;;;;;4945570;28;20201;-85
2022/11/20 08:26:18;;;;;;;0.50;0.50;;;1.50;99.90;;;;;;4948777;28;20578;-84
2022/11/20 08:28:44;;;;;;;0.40;0.40;;;1.50;99.90;;;;;;4947284;28;20224;-84
2022/11/20 08:31:09;;;;;;;0.50;0.50;;;1.60;99.90;;;;;;4965552;28;20233;-85
2022/11/20 08:33:35;;;;;;;0.40;0.40;;;1.80;99.90;;;;;;4962130;28;20198;-86
2022/11/20 08:36:02;;;;;;;0.40;0.40;;;2.30;99.90;;;;;;5009062;28;20191;-88
2022/11/20 08:38:28;;;;;;;0.40;0.40;;;2.50;99.90;;;;;;4951838;28;20639;-87
2022/11/20 08:43:46;;;;;;;0.40;0.40;;;2.30;99.90;;;;;;4954693;28;20585;-86
2022/11/20 08:46:12;;;;;;;0.40;0.40;;;1.90;99.90;;;;;;4941670;28;20537;-86
2022/11/20 08:48:38;;;;;;;0.40;0.40;;;1.80;99.90;;;;;;4936641;28;20675;-86
2022/11/20 08:51:03;;;;;;;0.40;0.40;;;1.60;99.90;;;;;;5010977;28;20358;-87
2022/11/20 08:53:29;;;;;;;0.43;0.43;;;1.40;99.90;;;;;;5029237;28;20194;-86
2022/11/20 08:55:56;;;;;;;0.50;0.50;;;1.30;99.90;;;;;;4988353;28;20234;-85
2022/11/20 08:58:22;;;;;;;0.50;0.50;;;1.20;99.90;;;;;;4936944;28;20191;-90
2022/11/20 09:00:47;;;;;;;0.40;0.40;;;1.10;99.90;;;;;;4937057;28;20456;-96
2022/11/20 09:03:13;;;;;;;0.40;0.40;;;1.00;99.90;;;;;;4997845;28;20182;-87
2022/11/20 09:05:39;;;;;;;0.50;0.50;;;1.10;99.90;;;;;;4948420;28;20206;-88
2022/11/20 09:08:04;;;;;;;0.50;0.50;;;1.10;99.90;;;;;;4967834;28;20198;-90
2022/11/20 09:10:30;;;;;;;0.40;0.40;;;1.10;99.90;;;;;;4945352;28;23130;-88
2022/11/20 09:12:56;;;;;;;0.40;0.40;;;1.10;99.90;;;;;;5005430;28;20201;-89
2022/11/20 09:15:22;;;;;;;0.50;0.50;;;1.10;99.90;;;;;;4952442;28;20191;-90
2022/11/20 09:17:55;;;;;;;0.40;0.40;;;1.10;99.90;;;;;;4954235;28;20458;-90
2022/11/20 09:20:22;;;;;;;0.50;0.50;;;1.20;99.90;;;;;;4949384;28;20442;-90
2022/11/20 09:22:47;;;;;;;0.50;0.50;;;1.10;99.90;;;;;;4949221;28;20973;-91
2022/11/20 09:25:13;;;;;;;0.50;0.50;;;1.10;99.90;;;;;;4953035;28;20449;-90
2022/11/20 09:27:41;;;;;;;0.40;0.40;;;1.10;99.90;;;;;;4970944;28;20425;-90
2022/11/20 09:30:07;;;;;;;0.50;0.50;;;1.10;99.90;;;;;;4951319;28;20222;-90
2022/11/20 09:32:32;;;;;;;0.50;0.50;;;1.10;99.90;;;;;;5022262;28;20533;-95
2022/11/20 09:34:58;;;;;;;0.50;0.50;;;1.30;99.90;;;;;;4958717;28;20539;-95
2022/11/20 09:37:23;;;;;;;0.40;0.40;;;1.40;99.90;;;;;;4990509;28;20636;-96
2022/11/20 09:39:49;;;;;;;0.33;0.33;;;1.50;99.90;;;;;;4944865;28;20186;-96
2022/11/20 09:42:41;;;;;;;0.40;0.40;;;1.50;99.90;;;;;;4953703;29;20879;-96
2022/11/20 09:45:55;;;;;;;0.50;0.50;;;1.40;99.90;;;;;;4948832;28;20215;-96
2022/11/20 09:49:01;;;;;;;0.40;0.40;;;1.40;99.90;;;;;;4958402;28;20459;-95
2022/11/20 09:51:30;;;;;;;0.40;0.40;;;1.40;99.90;;;;;;5007647;28;20474;-94
2022/11/20 09:54:08;;;;;;;0.40;0.40;;;1.40;99.90;;;;;;4967366;28;20457;-94
2022/11/20 09:56:36;;;;;;;0.50;0.50;;;1.50;99.90;;;;;;4973635;28;20462;-94
2022/11/20 09:59:05;;;;;;;0.50;0.50;;;1.50;99.90;;;;;;5029590;28;20435;-93
2022/11/20 10:01:35;;;;;;;0.50;0.50;;;1.50;99.90;;;;;;4963047;28;20542;-94
2022/11/20 10:04:10;;;;;;;0.50;0.50;;;1.60;99.90;;;;;;4942467;28;20565;-94
2022/11/20 10:06:44;;;;;;;0.40;0.40;;;1.60;99.90;;;;;;5028135;28;20454;-93
2022/11/20 10:09:12;;;;;;;0.40;0.40;;;1.70;99.90;;;;;;5024471;28;20499;-94
2022/11/20 10:12:06;;;;;;;0.50;0.50;;;1.70;99.90;;;;;;5026797;28;20998;-94
2022/11/20 10:14:53;;;;;;;0.40;0.40;;;1.70;99.90;;;;;;4942810;28;20447;-93
2022/11/20 10:17:46;;;;;;;0.40;0.40;;;1.80;99.90;;;;;;4945176;28;20461;-93
2022/11/20 10:20:24;;;;;;;0.40;0.40;;;1.90;99.90;;;;;;4946486;28;20462;-95
2022/11/20 10:23:14;;;;;;;0.40;0.40;;;1.90;99.90;;;;;;5020622;28;20501;-92
2022/11/20 10:26:12;;;;;;;0.40;0.40;;;1.90;99.90;;;;;;4950109;28;20512;-91
2022/11/20 10:29:00;;;;;;;0.40;0.40;;;2.00;99.90;;;;;;4961087;28;20911;-93
2022/11/20 10:31:36;;;;;;;0.50;0.50;;;2.00;99.90;;;;;;4963643;28;20489;-90
2022/11/20 10:34:19;;;;;;;0.40;0.40;;;2.10;99.90;;;;;;4950864;28;20840;-90
2022/11/20 10:36:50;;;;;;;0.40;0.40;;;2.20;99.90;;;;;;4954509;28;20458;-88
2022/11/20 10:39:41;;;;;;;0.40;0.40;;;2.30;99.90;;;;;;4957914;28;20434;-87
2022/11/20 10:42:14;;;;;;;0.40;0.40;;;2.40;99.90;;;;;;4953674;28;20477;-89
2022/11/20 10:45:02;;;;;;;0.40;0.40;;;2.50;99.90;;;;;;4954147;28;20544;-90
2022/11/20 10:47:30;;;;;;;0.40;0.40;;;2.50;99.90;;;;;;4948188;28;20439;-89
2022/11/20 10:50:03;;;;;;;0.40;0.40;;;2.50;99.90;;;;;;4979141;28;20829;-89
2022/11/20 10:53:08;;;;;;;0.30;0.30;;;2.50;99.90;;;;;;4958261;28;20503;-88
2022/11/20 10:55:42;;;;;;;0.40;0.40;;;2.50;99.90;;;;;;4942034;28;20438;-87
2022/11/20 10:58:36;;;;;;;0.40;0.40;;;2.50;99.90;;;;;;4963638;28;20469;-88
2022/11/20 11:01:13;;;;;;;0.40;0.40;;;2.50;99.90;;;;;;4939649;28;20482;-89
2022/11/20 11:03:38;;;;;;;0.40;0.40;;;2.60;99.90;;;;;;4933669;28;20466;-89
2022/11/20 11:06:13;;;;;;;0.50;0.50;;;2.50;99.90;;;;;;4950139;28;20892;-90
2022/11/20 11:08:39;;;;;;;0.40;0.40;;;2.50;99.90;;;;;;4946799;28;20199;-90
2022/11/20 11:11:25;;;;;;;0.37;0.37;;;2.50;99.90;;;;;;4940650;28;20498;-88
2022/11/20 11:13:51;;;;;;;0.40;0.40;;;2.50;99.90;;;;;;4949782;28;20446;-88
2022/11/20 11:16:24;;;;;;;0.33;0.33;;;2.50;99.90;;;;;;4950716;28;20509;-91
2022/11/20 11:18:49;;;;;;;0.40;0.40;;;2.40;99.90;;;;;;4948373;28;20533;-89
2022/11/20 11:21:23;;;;;;;0.37;0.37;;;2.50;99.90;;;;;;5023984;28;20465;-87
2022/11/20 11:24:01;;;;;;;0.40;0.40;;;2.60;99.90;;;;;;4958080;28;20191;-88
2022/11/20 11:26:27;;;;;;;0.30;0.30;;;2.80;99.90;;;;;;4953568;28;20536;-90
2022/11/20 11:29:04;;;;;;;0.40;0.40;;;3.20;99.90;;;;;;4949850;28;21241;-92
2022/11/20 11:31:34;;;;;;;0.40;0.40;;;3.70;99.90;;;;;;5044566;28;20468;-88
2022/11/20 11:34:16;;;;;;;0.30;0.30;;;4.80;99.90;;;;;;4971931;28;20517;-95
2022/11/20 11:36:42;;;;;;;0.30;0.30;;;5.60;99.90;;;;;;4944588;28;20470;-93
2022/11/20 11:39:20;;;;;;;0.30;0.30;;;6.80;99.90;;;;;;4950777;28;20482;-91
2022/11/20 11:41:47;;;;;;;0.23;0.23;;;6.20;99.90;;;;;;4955268;28;20977;-90
2022/11/20 11:47:26;;;;;;;0.20;0.20;;;5.70;99.90;;;;;;4951377;28;20450;-92
2022/11/20 11:50:13;;;;;;;0.20;0.20;;;5.30;99.90;;;;;;5043423;28;20467;-90
2022/11/20 11:53:01;;;;;;;0.20;0.20;;;5.80;99.90;;;;;;5026383;28;20997;-88
2022/11/20 11:55:31;;;;;;;0.20;0.20;;;6.50;99.90;;;;;;4956282;28;20438;-91
2022/11/20 11:58:41;;;;;;;0.20;0.20;;;7.10;99.90;;;;;;5026643;28;20454;-92
2022/11/20 12:01:18;;;;;;;0.20;0.20;;;7.30;99.90;;;;;;5003126;28;20898;-87
2022/11/20 12:04:00;;;;;;;0.20;0.20;;;7.80;99.90;;;;;;5004568;28;20450;-86
2022/11/20 12:06:29;;;;;;;0.10;0.10;;;7.80;99.90;;;;;;4934131;28;20489;-87
2022/11/20 12:09:05;;;;;;;0.10;0.10;;;7.80;99.90;;;;;;4934063;28;20442;-86
2022/11/20 12:11:38;;;;;;;0.10;0.10;;;7.20;99.90;;;;;;5004216;28;20564;-89
2022/11/20 12:14:39;;;;;;;0.20;0.20;;;6.50;99.90;;;;;;5018428;28;20485;-86
2022/11/20 12:17:05;;;;;;;0.20;0.20;;;6.80;99.90;;;;;;4998997;28;20455;-88
2022/11/20 12:19:34;;;;;;;0.20;0.20;;;6.00;99.90;;;;;;5015747;28;20454;-88
2022/11/20 12:22:06;;;;;;;0.20;0.20;;;5.40;99.90;;;;;;5004537;28;20192;-87
2022/11/20 12:24:59;;;;;;;0.20;0.20;;;5.00;99.90;;;;;;4946352;28;20496;-86
2022/11/20 12:27:36;;;;;;;0.20;0.20;;;4.60;99.90;;;;;;5015999;28;20458;-87
2022/11/20 12:30:10;;;;;;;0.30;0.30;;;4.60;99.90;;;;;;5007443;28;20475;-87
2022/11/20 12:33:13;;;;;;;0.30;0.30;;;4.40;99.90;;;;;;5021996;28;20456;-86
2022/11/20 12:36:07;;;;;;;0.30;0.30;;;4.30;99.90;;;;;;4960944;28;20785;-86
2022/11/20 12:38:41;;;;;;;0.30;0.30;;;4.30;99.90;;;;;;4947867;28;20438;-87
2022/11/20 12:45:16;;;;;;;0.20;0.20;;;5.60;99.90;;;;;;4923014;29;20445;-85
2022/11/20 12:47:44;;;;;;;0.20;0.20;;;8.60;99.90;;;;;;4932208;28;20504;-88
2022/11/20 12:50:37;;;;;;;0.20;0.20;;;9.60;99.90;;;;;;4952411;28;20474;-88
2022/11/20 12:53:21;;;;;;;0.10;0.10;;;10.10;99.90;;;;;;4948181;28;20576;-88
2022/11/20 12:55:54;;;;;;;0.10;0.10;;;9.50;99.90;;;;;;4950629;28;20446;-88
2022/11/20 12:58:38;;;;;;;0.10;0.10;;;9.10;99.90;;;;;;5020615;28;20459;-88
2022/11/20 13:01:39;;;;;;;0.10;0.10;;;8.50;99.90;;;;;;4946355;28;20502;-88
2022/11/20 13:04:23;;;;;;;0.10;0.10;;;8.30;99.90;;;;;;4943487;28;20458;-90
2022/11/20 13:06:50;;;;;;;0.10;0.10;;;7.80;99.90;;;;;;4965404;28;20869;-88
2022/11/20 13:09:19;;;;;;;0.10;0.10;;;8.00;99.90;;;;;;4952473;28;20445;-87
2022/11/20 13:12:02;;;;;;;0.10;0.10;;;9.00;99.90;;;;;;4957664;28;20500;-87
2022/11/20 13:14:41;;;;;;;0.10;0.10;;;9.70;99.90;;;;;;5014333;28;20520;-93
2022/11/20 13:17:13;;;;;;;0.10;0.10;;;10.00;99.90;;;;;;4966611;28;20455;-93
2022/11/20 13:19:38;;;;;;;0.10;0.10;;;9.30;99.90;;;;;;5013730;28;20449;-92
2022/11/20 13:22:04;;;;;;;0.10;0.10;;;9.20;99.90;;;;;;5030208;28;20515;-93
2022/11/20 13:24:32;;;;;;;0.10;0.10;;;9.20;99.90;;;;;;5016913;28;20524;-90
2022/11/20 13:27:12;;;;;;;0.10;0.10;;;9.10;99.90;;;;;;4967987;28;20187;-92
2022/11/20 13:29:43;;;;;;;0.10;0.10;;;9.40;99.90;;;;;;5009987;28;20444;-90